Topcliffe, United Kingdom
Current Conditions -  °F | °C
As of 3:50 AM on Thursday 23 Oct 2014 (Local Time) from EGXZ Reporting Station
Scattered Clouds Scattered Clouds  
Wind Chill: 54°   Ceiling: Unl
Heat Index: 54°   Visibility: 6mi
Dew Point: 46°   Wind: 6mph
Humidity: 77%   Direction: 180°S
Pressure: 29.97"   Gusts: NA
Location:  54.2°N, 1.38°W
Report Text: EGXZ 230250Z AUTO 18005KT 9999 SCT024/// SCT033/// 12/08 Q1015
Loading
Personal Weather Stations






























Interactive Weather Map New forecast layout! Learn more

10-Day Weather Forecast

Advertisements
Track Severe Weather on mobile